createdAt,value
2019-03-22T00:00:55.792Z,11.70
2019-03-22T00:05:52.787Z,12.43
2019-03-22T00:10:49.709Z,8.53
2019-03-22T00:15:46.963Z,11.10
2019-03-22T00:20:45.268Z,10.60
2019-03-22T00:25:42.338Z,10.20
2019-03-22T00:30:40.566Z,9.77
2019-03-22T00:35:37.352Z,11.70
2019-03-22T00:40:34.066Z,9.07
2019-03-22T00:45:30.936Z,11.00
2019-03-22T00:50:27.701Z,10.53
2019-03-22T00:55:24.313Z,12.53
2019-03-22T01:00:23.979Z,9.67
2019-03-22T01:05:20.668Z,9.67
2019-03-22T01:10:20.192Z,9.07
2019-03-22T01:15:16.994Z,10.63
2019-03-22T01:20:15.892Z,11.87
2019-03-22T01:25:13.279Z,10.63
2019-03-22T01:30:11.287Z,10.50
2019-03-22T01:35:09.750Z,11.07
2019-03-22T01:40:12.130Z,11.47
2019-03-22T01:45:09.758Z,12.07
2019-03-22T01:50:08.353Z,10.00
2019-03-22T01:55:05.273Z,10.80
2019-03-22T02:00:02.367Z,14.67
2019-03-22T02:04:59.162Z,13.53
2019-03-22T02:09:55.916Z,10.67
2019-03-22T02:14:53.255Z,11.13
2019-03-22T02:19:54.607Z,18.50
2019-03-22T02:24:52.811Z,12.97
2019-03-22T02:29:49.939Z,10.80
2019-03-22T02:34:46.586Z,11.00
2019-03-22T02:39:43.409Z,10.93
2019-03-22T02:44:40.481Z,10.20
2019-03-22T02:49:37.264Z,9.77
2019-03-22T02:54:33.976Z,12.20
2019-03-22T02:59:30.758Z,11.30
2019-03-22T03:04:27.617Z,11.30
2019-03-22T03:09:24.438Z,10.30
2019-03-22T03:14:21.991Z,11.37
2019-03-22T03:19:20.770Z,11.80
2019-03-22T03:24:22.158Z,13.73
2019-03-22T03:29:18.981Z,11.77
2019-03-22T03:34:18.498Z,9.03
2019-03-22T03:39:15.223Z,11.80
2019-03-22T03:44:13.910Z,11.40
2019-03-22T03:49:11.070Z,12.17
2019-03-22T03:54:08.033Z,13.00
2019-03-22T03:59:06.740Z,11.73
2019-03-22T04:04:04.124Z,11.10
2019-03-22T04:09:02.749Z,11.60
2019-03-22T04:14:04.040Z,11.50
2019-03-22T04:19:01.142Z,11.17
2019-03-22T04:24:02.679Z,12.67
2019-03-22T04:29:07.205Z,12.47
2019-03-22T04:34:01.307Z,15.03
2019-03-22T04:39:03.861Z,13.47
2019-03-22T04:44:00.190Z,11.17
2019-03-22T04:49:06.885Z,13.57
2019-03-22T04:54:12.887Z,15.33
2019-03-22T04:59:19.815Z,13.27
2019-03-22T05:04:32.064Z,14.63
2019-03-22T05:09:58.429Z,13.57
2019-03-22T05:15:19.761Z,12.97
2019-03-22T05:20:32.430Z,14.73
2019-03-22T05:25:56.368Z,14.70
2019-03-22T05:31:58.289Z,14.73
2019-03-22T05:43:37.121Z,13.37
2019-03-22T05:48:23.798Z,12.07
2019-03-22T05:54:01.798Z,13.63
2019-03-22T05:59:43.268Z,17.30
2019-03-22T06:05:01.156Z,17.47
2019-03-22T06:10:50.197Z,16.63
2019-03-22T06:16:06.931Z,18.03
2019-03-22T06:21:37.541Z,16.17
2019-03-22T06:26:48.236Z,18.67
2019-03-22T06:31:56.856Z,20.10
2019-03-22T06:36:59.680Z,23.73
2019-03-22T06:42:58.828Z,18.03
2019-03-22T06:48:05.956Z,20.43
2019-03-22T06:53:13.757Z,16.47
2019-03-22T06:59:01.248Z,14.00
2019-03-22T07:04:04.262Z,13.60
2019-03-22T07:09:06.774Z,15.47
2019-03-22T07:14:52.718Z,17.83
2019-03-22T07:20:04.665Z,16.47
2019-03-22T07:31:14.356Z,15.80
2019-03-22T07:36:11.078Z,18.03
2019-03-22T07:41:10.289Z,17.90
2019-03-22T07:46:09.597Z,16.67
2019-03-22T07:51:06.352Z,14.23
2019-03-22T07:56:09.993Z,14.83
2019-03-22T08:01:07.356Z,15.13
2019-03-22T08:06:06.249Z,16.00
2019-03-22T08:11:03.335Z,15.77
2019-03-22T08:16:00.195Z,14.63
2019-03-22T08:21:02.646Z,16.70
2019-03-22T08:31:23.228Z,18.30
2019-03-22T08:36:33.713Z,16.30
2019-03-22T08:41:33.603Z,15.93
2019-03-22T08:46:30.646Z,17.53
2019-03-22T08:51:29.842Z,15.07
2019-03-22T08:56:26.600Z,16.00
2019-03-22T09:01:24.109Z,17.17
2019-03-22T09:06:21.050Z,15.97
2019-03-22T09:11:18.296Z,16.93
2019-03-22T09:16:15.066Z,16.20
2019-03-22T09:21:12.998Z,12.50
2019-03-22T09:26:09.859Z,14.57
2019-03-22T09:31:10.642Z,14.30
2019-03-22T09:36:05.337Z,13.83
2019-03-22T09:41:02.181Z,13.30
2019-03-22T09:45:59.190Z,16.93
2019-03-22T09:50:56.269Z,14.97
2019-03-22T09:55:53.104Z,15.73
2019-03-22T10:00:50.031Z,15.90
2019-03-22T10:05:46.955Z,14.57
2019-03-22T10:10:43.632Z,16.50
2019-03-22T10:15:40.340Z,17.13
2019-03-22T10:20:37.192Z,18.27
2019-03-22T10:25:33.965Z,17.70
2019-03-22T10:30:31.021Z,15.37
2019-03-22T10:35:29.384Z,15.67
2019-03-22T10:40:26.256Z,18.43
2019-03-22T10:45:23.209Z,16.87
2019-03-22T10:50:20.499Z,21.17
2019-03-22T10:55:29.809Z,18.17
2019-03-22T11:00:19.445Z,19.90
2019-03-22T11:05:17.744Z,18.80
2019-03-22T11:10:18.393Z,18.83
2019-03-22T11:15:17.914Z,18.17
2019-03-22T11:20:16.677Z,18.70
2019-03-22T11:25:14.068Z,20.47
2019-03-22T11:30:14.560Z,18.67
2019-03-22T11:35:11.959Z,21.57
2019-03-22T11:40:11.404Z,20.07
2019-03-22T11:45:11.050Z,19.83
2019-03-22T11:50:10.572Z,21.83
2019-03-22T11:55:09.068Z,21.70
2019-03-22T12:00:09.030Z,23.63
2019-03-22T12:05:06.701Z,18.60
2019-03-22T12:10:03.645Z,23.37
2019-03-22T12:15:00.517Z,21.40
2019-03-22T12:20:00.479Z,21.67
2019-03-22T12:24:58.040Z,23.97
2019-03-22T12:29:57.920Z,21.60
2019-03-22T12:34:54.789Z,20.33
2019-03-22T12:39:51.776Z,25.70
2019-03-22T12:44:53.274Z,23.20
2019-03-22T12:50:09.190Z,29.20
2019-03-22T12:55:06.563Z,23.57
2019-03-22T13:00:04.192Z,25.73
2019-03-22T13:05:01.455Z,25.17
2019-03-22T13:09:58.283Z,24.13
2019-03-22T13:14:56.657Z,23.87
2019-03-22T13:19:53.475Z,23.53
2019-03-22T13:24:50.301Z,29.33
2019-03-22T13:29:47.484Z,26.40
2019-03-22T13:34:44.434Z,24.43
2019-03-22T13:39:41.228Z,29.73
2019-03-22T13:44:38.110Z,26.00
2019-03-22T13:49:34.874Z,27.70
2019-03-22T13:54:31.788Z,26.67
2019-03-22T13:59:33.268Z,26.00
2019-03-22T14:04:30.018Z,26.37
2019-03-22T14:09:26.747Z,26.57
2019-03-22T14:14:23.828Z,25.83
2019-03-22T14:19:20.576Z,25.73
2019-03-22T14:24:18.698Z,30.10
2019-03-22T14:29:15.862Z,30.27
2019-03-22T14:34:12.524Z,27.80
2019-03-22T14:39:10.346Z,25.10
2019-03-22T14:44:08.574Z,26.37
2019-03-22T14:49:05.654Z,26.93
2019-03-22T14:54:02.998Z,25.40
2019-03-22T14:59:03.077Z,27.57
2019-03-22T15:04:00.003Z,28.30
2019-03-22T15:08:57.132Z,27.07
2019-03-22T15:14:15.578Z,28.73
2019-03-22T15:19:29.999Z,27.67
2019-03-22T15:24:57.746Z,29.17
2019-03-22T15:30:28.898Z,28.60
2019-03-22T15:35:46.830Z,25.90
2019-03-22T15:40:43.804Z,29.20
2019-03-22T15:45:40.759Z,29.50
2019-03-22T15:50:37.490Z,30.77
2019-03-22T15:55:34.301Z,30.03
2019-03-22T16:00:31.190Z,29.77
2019-03-22T16:05:27.878Z,30.23
2019-03-22T16:10:24.644Z,29.20
2019-03-22T16:15:21.584Z,30.10
2019-03-22T16:20:18.750Z,25.70
2019-03-22T16:25:15.675Z,26.87
2019-03-22T16:30:13.372Z,29.23
2019-03-22T16:35:10.807Z,26.97
2019-03-22T16:40:11.672Z,26.90
2019-03-22T16:45:18.155Z,30.53
2019-03-22T16:50:27.685Z,30.40
2019-03-22T16:55:25.072Z,30.07
2019-03-22T17:00:26.071Z,31.07
2019-03-22T17:05:23.083Z,30.73
2019-03-22T17:10:19.964Z,29.13
2019-03-22T17:23:00.473Z,33.13
2019-03-22T17:29:24.896Z,33.83
2019-03-22T17:34:59.151Z,34.03
2019-03-22T17:39:56.035Z,30.37
2019-03-22T17:44:53.305Z,32.40
2019-03-22T17:49:50.039Z,35.20
2019-03-22T17:54:48.513Z,31.93
2019-03-22T17:59:45.313Z,33.27
2019-03-22T18:04:42.236Z,32.17
2019-03-22T18:09:39.080Z,35.00
2019-03-22T18:14:35.927Z,34.77
2019-03-22T18:19:32.780Z,29.50
2019-03-22T18:24:29.534Z,30.90
2019-03-22T18:29:27.054Z,32.43
2019-03-22T18:34:33.932Z,30.40
2019-03-22T18:39:34.271Z,32.83
2019-03-22T18:44:31.220Z,38.07
2019-03-22T18:49:39.437Z,34.00
2019-03-22T18:54:39.865Z,33.13
2019-03-22T18:59:42.397Z,34.00
2019-03-22T19:04:44.385Z,32.10
2019-03-22T19:10:45.423Z,32.83
2019-03-22T20:19:55.005Z,44.70
2019-03-22T20:24:51.668Z,36.63
2019-03-22T20:29:48.339Z,39.17
2019-03-22T20:57:01.636Z,47.13
2019-03-22T21:01:59.151Z,47.27
2019-03-22T21:06:55.809Z,37.97
2019-03-22T21:11:52.619Z,36.13
2019-03-22T21:16:49.297Z,42.13
2019-03-22T21:21:46.275Z,41.00
2019-03-22T21:26:43.736Z,46.10
2019-03-22T21:31:41.353Z,45.23
2019-03-22T21:36:38.031Z,36.13
2019-03-22T21:41:36.111Z,38.27
2019-03-22T21:46:33.014Z,35.93
2019-03-22T21:51:29.674Z,37.57
2019-03-22T21:56:29.486Z,34.43
2019-03-22T22:01:26.355Z,29.93
2019-03-22T22:06:26.860Z,31.63
2019-03-22T22:11:23.799Z,30.23
2019-03-22T22:16:25.599Z,31.80
2019-03-22T22:21:23.850Z,33.70
2019-03-22T22:26:29.912Z,29.90
2019-03-22T22:31:30.903Z,33.57
2019-03-22T22:36:34.021Z,34.47
2019-03-22T22:41:32.266Z,38.90
2019-03-22T22:46:28.896Z,36.63
2019-03-22T22:51:25.651Z,41.70
2019-03-22T22:56:22.801Z,40.03
2019-03-22T23:01:22.855Z,38.00
2019-03-22T23:13:41.526Z,34.13
2019-03-22T23:18:38.131Z,34.30
2019-03-22T23:58:58.642Z,42.33
